• Join FlightAware (Why Join?)
  • Login
  • US Flag 
Gobble Gobble! 
06:03AM EST


 

Airport Tracker/Info


-or-


 

Live Flight TrackerFlight Track Log ✈ SWA3963 ✈ 26-Jul-2013 ✈ KLAX - KOAK

Flight Track Log - Related Links

Times and Time Zones

All times are in EDT time to prevent confusion due to time zone crossing. See the SWA3963 flight status page for this flight to view local times or setup timezone preferences in your user account.

Time Position Orientation Groundspeed Altitude Reporting Facility
EDT Latitude Longitude Course Direction KTS MPH feet Rate Location/Type
08:07PM 33.9367 -118.5864 259° West 260 299 5,900  Level Los Angeles Center
08:08PM 33.9678 -118.6722 294° West 287 330 9,000 1,500 Climbing Los Angeles Center
08:09PM 34.0411 -118.7075 338° Northwest 295 339 9,000  Level Los Angeles Center
08:10PM 34.1075 -118.6561 33° Northeast 281 323 9,000 360 Level Los Angeles Center
08:11PM 34.1836 -118.6319 15° North 292 336 9,800 1,740 Climbing Los Angeles Center
08:12PM 34.2653 -118.6531 348° North 303 349 13,100 3,000 Climbing Los Angeles Center
08:13PM 34.3669 -118.6817 347° North 312 359 16,700 3,180 Climbing Los Angeles Center
08:15PM 34.4778 -118.7103 348° North 337 388 19,700 2,040 Climbing Los Angeles Center
08:16PM 34.5758 -118.7450 344° North 373 429 21,000 1,620 Climbing Los Angeles Center
08:17PM 34.6792 -118.8014 336° Northwest 408 470 23,100 1,800 Climbing Los Angeles Center
08:18PM 34.7864 -118.8553 338° Northwest 414 476 24,800 1,800 Climbing Los Angeles Center
08:19PM 34.8983 -118.9575 323° Northwest 440 506 26,900 1,620 Climbing Los Angeles Center
08:20PM 35.0003 -119.0553 322° Northwest 452 520 28,600 2,160 Climbing Los Angeles Center
08:21PM 35.1183 -119.1672 322° Northwest 446 513 31,800 2,160 Climbing Los Angeles Center
08:22PM 35.2131 -119.2619 321° Northwest 442 509 33,100 1,260 Climbing Los Angeles Center
08:23PM 35.3122 -119.3586 322° Northwest 458 527 34,500 1,200 Climbing Los Angeles Center
08:24PM 35.4078 -119.4542 321° Northwest 446 513 35,700 720 Climbing Los Angeles Center
08:25PM 35.5275 -119.5714 321° Northwest 457 526 36,000 120 Climbing Los Angeles Center
08:26PM 35.6264 -119.6706 321° Northwest 460 529 36,000  Level Los Angeles Center
08:27PM 35.6833 -119.7281 321° Northwest 459 528 36,000  Level Oakland Center
08:28PM 35.7811 -119.8264 321° Northwest 458 527 36,000  Level Oakland Center
08:29PM 35.8772 -119.9228 321° Northwest 453 521 36,000  Level Oakland Center
08:30PM 35.9761 -120.0214 321° Northwest 458 527 36,000  Level Oakland Center
08:31PM 36.0731 -120.1194 321° Northwest 456 525 36,000  Level Oakland Center
08:32PM 36.1694 -120.2178 321° Northwest 452 520 36,000  Level Oakland Center
08:33PM 36.2881 -120.3381 321° Northwest 462 532 36,000 -480 Level Oakland Center
08:34PM 36.3869 -120.4411 320° Northwest 466 536 35,100 -1,800 Descending Oakland Center
08:35PM 36.4858 -120.5389 322° Northwest 458 527 32,400 -2,760 Descending Oakland Center
08:36PM 36.5850 -120.6436 320° Northwest 468 539 29,500 -2,880 Descending Oakland Center
08:37PM 36.6853 -120.7506 319° Northwest 473 544 26,500 -2,820 Descending Oakland Center
08:38PM 36.7836 -120.8503 321° Northwest 461 531 23,800 -2,400 Descending Oakland Center
08:39PM 36.8722 -120.9564 316° Northwest 447 514 21,700 -2,400 Descending Oakland Center
08:40PM 36.9739 -121.0742 317° Northwest 419 482 19,000 -2,640 Descending Oakland Center
08:41PM 37.0508 -121.1600 318° Northwest 406 467 16,300 -2,700 Descending Oakland Center
08:42PM 37.1403 -121.2633 317° Northwest 404 465 13,500 -2,640 Descending Oakland Center
08:43PM 37.2172 -121.3550 317° Northwest 385 443 11,000 -1,740 Descending Oakland Center
08:44PM 37.2919 -121.4422 317° Northwest 366 421 10,000 -780 Descending Oakland Center
08:45PM 37.3594 -121.5192 318° Northwest 302 348 9,500 -840 Descending Oakland Center
08:46PM 37.4192 -121.5906 316° Northwest 295 339 8,400 -1,080 Descending Oakland Center
08:47PM 37.4775 -121.6600 317° Northwest 292 336 7,300 -780 Descending Oakland Center
08:48PM 37.5364 -121.7289 317° Northwest 290 334 6,900 -780 Descending Oakland Center
08:49PM 37.5650 -121.8194 292° West 296 341 5,800 -1,080 Descending Oakland Center
08:50PM 37.5836 -121.9097 285° West 274 315 4,800 -900 Descending Oakland Center
08:51PM 37.6000 -122.0000 283° West 231 266 4,000 -1,020 Descending Northern Cal TRACON
08:52PM 37.6167 -122.0833 284° West 213 245 2,700 -1,200 Descending Northern Cal TRACON
08:53PM 37.6500 -122.1333 310° West 198 228 1,500 -1,020 Descending Northern Cal TRACON
08:54PM 37.6833 -122.1833 310° West 141 162 700 -780 Descending Northern Cal TRACON
08:55PM 37.7000 -122.2167 302° West 124 143 100 -720 Descending Northern Cal TRACON
08:57PM 37.7167 -122.2167 270° West  Level FlightAware Approximate
09:04PM 37.7213 -122.2207 270° West  Level Estimated